createdAt,value
2018-10-18T00:01:21.065Z,13.30
2018-10-18T00:03:49.636Z,11.70
2018-10-18T00:06:18.447Z,13.30
2018-10-18T00:08:47.119Z,13.00
2018-10-18T00:11:15.645Z,12.03
2018-10-18T00:13:44.428Z,12.47
2018-10-18T00:16:13.178Z,13.30
2018-10-18T00:18:41.720Z,13.33
2018-10-18T00:21:10.465Z,13.10
2018-10-18T00:23:38.909Z,13.63
2018-10-18T00:26:07.478Z,13.47
2018-10-18T00:28:36.449Z,13.43
2018-10-18T00:31:04.989Z,12.53
2018-10-18T00:33:33.733Z,13.30
2018-10-18T00:36:02.528Z,13.87
2018-10-18T00:38:31.277Z,14.40
2018-10-18T00:41:00.110Z,13.63
2018-10-18T00:43:28.877Z,14.67
2018-10-18T00:45:57.370Z,14.73
2018-10-18T00:48:26.153Z,14.97
2018-10-18T00:50:54.931Z,14.57
2018-10-18T00:53:23.765Z,15.33
2018-10-18T00:55:52.607Z,15.80
2018-10-18T00:58:21.577Z,15.20
2018-10-18T01:00:50.111Z,15.50
2018-10-18T01:03:18.877Z,15.53
2018-10-18T01:05:47.729Z,15.50
2018-10-18T01:08:16.324Z,16.57
2018-10-18T01:10:44.929Z,15.47
2018-10-18T01:13:13.489Z,16.00
2018-10-18T01:15:41.933Z,15.70
2018-10-18T01:18:10.548Z,16.30
2018-10-18T01:20:39.109Z,16.40
2018-10-18T01:23:08.143Z,16.47
2018-10-18T01:25:37.051Z,15.90
2018-10-18T01:28:05.797Z,16.17
2018-10-18T01:30:34.249Z,16.23
2018-10-18T01:33:03.162Z,17.03
2018-10-18T01:35:31.716Z,16.27
2018-10-18T01:38:00.174Z,17.50
2018-10-18T01:40:28.912Z,17.70
2018-10-18T01:42:57.621Z,17.57
2018-10-18T01:45:26.187Z,17.73
2018-10-18T01:47:54.912Z,18.17
2018-10-18T01:50:23.494Z,17.50
2018-10-18T01:52:51.995Z,18.43
2018-10-18T01:55:20.613Z,17.87
2018-10-18T01:57:49.267Z,18.77
2018-10-18T02:00:17.781Z,18.37
2018-10-18T02:02:46.409Z,18.67
2018-10-18T02:05:15.277Z,18.53
2018-10-18T02:07:43.713Z,19.50
2018-10-18T02:10:12.461Z,19.93
2018-10-18T02:12:41.308Z,19.50
2018-10-18T02:15:11.154Z,20.80
2018-10-18T02:17:40.114Z,20.00
2018-10-18T02:20:09.708Z,20.80
2018-10-18T02:22:38.287Z,19.80
2018-10-18T02:25:07.237Z,20.00
2018-10-18T02:27:36.166Z,20.13
2018-10-18T02:30:05.482Z,20.87
2018-10-18T02:32:34.317Z,21.83
2018-10-18T02:35:03.188Z,21.83
2018-10-18T02:37:31.645Z,21.90
2018-10-18T02:40:00.741Z,22.33
2018-10-18T02:42:29.765Z,20.33
2018-10-18T02:44:58.278Z,21.50
2018-10-18T02:47:27.528Z,21.63
2018-10-18T02:49:56.487Z,21.40
2018-10-18T02:52:24.994Z,21.30
2018-10-18T02:54:53.514Z,23.33
2018-10-18T02:57:22.504Z,22.77
2018-10-18T02:59:50.943Z,20.67
2018-10-18T03:02:19.754Z,21.23
2018-10-18T03:04:48.642Z,19.67
2018-10-18T03:07:17.202Z,19.80
2018-10-18T03:09:45.887Z,18.30
2018-10-18T03:12:14.732Z,21.17
2018-10-18T03:14:43.110Z,20.27
2018-10-18T03:17:11.887Z,19.60
2018-10-18T03:19:40.553Z,20.73
2018-10-18T03:22:08.993Z,20.43
2018-10-18T03:24:37.514Z,20.47
2018-10-18T03:27:06.768Z,19.10
2018-10-18T03:29:35.206Z,19.53
2018-10-18T03:32:03.729Z,19.93
2018-10-18T03:34:32.526Z,20.90
2018-10-18T03:37:00.953Z,19.53
2018-10-18T03:39:29.657Z,19.57
2018-10-18T03:41:58.234Z,20.50
2018-10-18T03:44:26.678Z,19.27
2018-10-18T03:46:55.489Z,19.63
2018-10-18T03:49:24.571Z,18.73
2018-10-18T03:51:53.005Z,19.80
2018-10-18T03:54:21.554Z,19.73
2018-10-18T03:56:50.308Z,18.20
2018-10-18T03:59:19.805Z,17.73
2018-10-18T04:01:48.525Z,17.70
2018-10-18T04:04:17.375Z,18.63
2018-10-18T04:06:46.086Z,17.73
2018-10-18T04:09:14.613Z,18.47
2018-10-18T04:11:43.432Z,18.27
2018-10-18T04:14:12.016Z,17.63
2018-10-18T04:16:40.582Z,17.70
2018-10-18T04:19:09.396Z,16.87
2018-10-18T04:21:38.316Z,16.47
2018-10-18T04:24:07.046Z,17.27
2018-10-18T04:26:35.777Z,15.83
2018-10-18T04:29:04.297Z,15.67
2018-10-18T04:31:33.121Z,14.50
2018-10-18T04:34:01.868Z,16.10
2018-10-18T04:36:30.390Z,16.17
2018-10-18T04:38:59.128Z,15.87
2018-10-18T04:41:27.880Z,14.30
2018-10-18T04:43:56.387Z,15.57
2018-10-18T04:46:25.187Z,15.47
2018-10-18T04:48:53.827Z,15.07
2018-10-18T04:51:22.247Z,15.57
2018-10-18T04:53:50.789Z,15.03
2018-10-18T04:56:19.856Z,15.03
2018-10-18T04:58:48.356Z,13.47
2018-10-18T05:01:17.348Z,14.63
2018-10-18T05:03:46.133Z,14.43
2018-10-18T05:06:14.596Z,14.17
2018-10-18T05:08:43.349Z,13.93
2018-10-18T05:11:11.967Z,13.03
2018-10-18T05:13:40.445Z,12.37
2018-10-18T05:16:09.090Z,11.57
2018-10-18T05:18:37.877Z,11.90
2018-10-18T05:21:06.549Z,12.70
2018-10-18T05:23:35.206Z,12.50
2018-10-18T05:26:04.079Z,12.10
2018-10-18T05:28:32.533Z,12.03
2018-10-18T05:31:01.281Z,12.53
2018-10-18T05:33:29.827Z,11.80
2018-10-18T05:35:58.269Z,12.17
2018-10-18T05:38:27.012Z,12.23
2018-10-18T05:40:55.626Z,11.57
2018-10-18T05:43:24.997Z,11.87
2018-10-18T05:45:55.013Z,11.97
2018-10-18T05:48:23.717Z,11.30
2018-10-18T05:50:52.182Z,11.30
2018-10-18T05:53:21.035Z,11.40
2018-10-18T05:55:49.741Z,11.37
2018-10-18T05:58:18.340Z,10.87
2018-10-18T06:00:46.965Z,10.13
2018-10-18T06:03:15.704Z,11.57
2018-10-18T06:05:44.178Z,10.97
2018-10-18T06:08:13.885Z,11.77
2018-10-18T06:10:53.785Z,11.20
2018-10-18T06:13:22.791Z,10.43
2018-10-18T06:15:51.250Z,13.40
2018-10-18T06:18:19.793Z,12.70
2018-10-18T06:20:48.492Z,13.37
2018-10-18T06:23:17.044Z,13.53
2018-10-18T06:25:45.686Z,14.20
2018-10-18T06:28:14.242Z,13.13
2018-10-18T06:30:42.689Z,14.20
2018-10-18T06:33:11.795Z,15.17
2018-10-18T06:35:40.601Z,15.43
2018-10-18T06:38:09.055Z,15.57
2018-10-18T06:40:37.981Z,16.53
2018-10-18T06:43:06.949Z,16.87
2018-10-18T06:45:35.399Z,15.57
2018-10-18T06:48:04.079Z,13.93
2018-10-18T06:50:33.267Z,13.63
2018-10-18T06:53:01.840Z,16.93
2018-10-18T06:55:30.726Z,14.60
2018-10-18T06:57:59.690Z,18.03
2018-10-18T07:00:28.246Z,16.63
2018-10-18T07:02:57.210Z,18.23
2018-10-18T07:05:26.401Z,17.07
2018-10-18T07:07:54.871Z,17.63
2018-10-18T07:10:23.542Z,17.80
2018-10-18T07:12:52.418Z,17.80
2018-10-18T07:15:20.886Z,15.50
2018-10-18T07:17:49.942Z,14.80
2018-10-18T07:20:18.510Z,14.10
2018-10-18T07:22:46.946Z,16.33
2018-10-18T07:25:16.439Z,14.87
2018-10-18T07:27:45.010Z,13.03
2018-10-18T07:30:14.647Z,12.13
2018-10-18T07:32:43.454Z,13.73
2018-10-18T07:35:13.471Z,14.70
2018-10-18T07:37:41.977Z,13.20
2018-10-18T07:40:13.789Z,13.30
2018-10-18T07:42:42.797Z,13.20
2018-10-18T07:45:12.701Z,12.50
2018-10-18T07:47:41.702Z,14.30
2018-10-18T07:50:10.686Z,11.60
2018-10-18T07:52:39.357Z,12.20
2018-10-18T07:55:08.747Z,9.80
2018-10-18T07:57:37.357Z,12.40
2018-10-18T08:00:08.066Z,11.97
2018-10-18T08:02:37.010Z,12.07
2018-10-18T08:05:06.792Z,12.07
2018-10-18T08:07:35.526Z,12.10
2018-10-18T08:10:04.596Z,12.80
2018-10-18T08:12:33.670Z,12.53
2018-10-18T08:15:02.122Z,11.87
2018-10-18T08:17:30.791Z,12.07
2018-10-18T08:19:59.462Z,10.40
2018-10-18T08:22:27.923Z,12.23
2018-10-18T08:24:56.747Z,10.90
2018-10-18T08:27:25.254Z,11.00
2018-10-18T08:29:53.890Z,11.63
2018-10-18T08:32:22.652Z,10.00
2018-10-18T08:34:51.189Z,10.70
2018-10-18T08:37:19.723Z,10.00
2018-10-18T08:39:48.221Z,9.33
2018-10-18T08:42:17.318Z,9.70
2018-10-18T08:44:45.852Z,9.20
2018-10-18T08:47:14.653Z,9.03
2018-10-18T08:49:43.514Z,9.23
2018-10-18T08:52:11.997Z,7.93
2018-10-18T08:54:40.646Z,8.53
2018-10-18T08:57:09.466Z,8.67
2018-10-18T08:59:38.174Z,8.30
2018-10-18T09:02:07.297Z,8.50
2018-10-18T09:04:36.662Z,8.43
2018-10-18T09:07:05.200Z,6.90
2018-10-18T09:09:34.558Z,8.00
2018-10-18T09:12:03.142Z,6.80
2018-10-18T09:14:31.637Z,6.93
2018-10-18T09:17:00.539Z,7.20
2018-10-18T09:19:29.072Z,6.57
2018-10-18T09:21:58.017Z,6.50
2018-10-18T09:24:26.889Z,6.27
2018-10-18T09:26:55.560Z,6.30
2018-10-18T09:29:24.005Z,5.67
2018-10-18T09:31:52.734Z,5.90
2018-10-18T09:34:21.682Z,6.27
2018-10-18T09:36:50.133Z,4.47
2018-10-18T09:39:18.805Z,5.40
2018-10-18T09:41:47.917Z,4.57
2018-10-18T09:44:16.430Z,4.80
2018-10-18T09:46:45.478Z,4.87
2018-10-18T09:49:14.424Z,4.80
2018-10-18T09:51:42.859Z,4.17
2018-10-18T09:54:11.735Z,3.83
2018-10-18T09:56:40.649Z,3.98
2018-10-18T09:59:09.063Z,3.85
2018-10-18T10:01:43.242Z,3.77
2018-10-18T10:04:11.807Z,3.67
2018-10-18T10:06:40.288Z,3.47
2018-10-18T10:09:09.410Z,4.10
2018-10-18T10:11:38.479Z,3.75
2018-10-18T10:14:06.867Z,3.87
2018-10-18T10:16:35.534Z,4.00
2018-10-18T10:19:04.496Z,3.85
2018-10-18T10:21:32.945Z,3.75
2018-10-18T10:24:01.568Z,3.60
2018-10-18T10:26:30.449Z,4.22
2018-10-18T10:28:58.901Z,3.87
2018-10-18T10:31:27.833Z,3.83
2018-10-18T10:33:56.712Z,3.52
2018-10-18T10:36:25.274Z,3.35
2018-10-18T10:38:54.536Z,3.17
2018-10-18T10:41:23.263Z,3.40
2018-10-18T10:43:51.698Z,3.92
2018-10-18T10:46:20.360Z,2.72
2018-10-18T10:48:48.913Z,2.90
2018-10-18T10:51:17.701Z,2.50
2018-10-18T10:53:46.560Z,2.60
2018-10-18T10:56:15.458Z,2.70
2018-10-18T10:58:44.406Z,2.75
2018-10-18T11:01:20.606Z,3.15
2018-10-18T11:03:50.101Z,3.10
2018-10-18T11:06:18.648Z,2.90
2018-10-18T11:08:47.434Z,2.65
2018-10-18T11:11:16.593Z,2.95
2018-10-18T11:13:45.622Z,3.05
2018-10-18T11:16:21.341Z,3.00
2018-10-18T11:18:49.782Z,2.55
2018-10-18T11:21:19.178Z,2.70
2018-10-18T11:23:48.303Z,2.65
2018-10-18T11:26:16.810Z,2.00
2018-10-18T11:28:45.354Z,1.75
2018-10-18T11:31:13.989Z,2.77
2018-10-18T11:33:42.564Z,3.02
2018-10-18T11:36:11.169Z,2.40
2018-10-18T11:38:40.095Z,2.00
2018-10-18T11:41:08.533Z,2.50
2018-10-18T11:43:37.001Z,2.02
2018-10-18T11:46:06.835Z,2.50
2018-10-18T11:48:35.255Z,2.27
2018-10-18T11:51:03.766Z,2.40
2018-10-18T11:53:33.139Z,2.30
2018-10-18T11:56:01.632Z,2.45
2018-10-18T11:58:30.066Z,2.08
2018-10-18T12:00:59.238Z,1.95
2018-10-18T12:03:27.662Z,2.30
2018-10-18T12:05:56.097Z,2.10
2018-10-18T12:08:24.777Z,2.10
2018-10-18T12:10:53.281Z,1.92
2018-10-18T12:13:21.831Z,1.98
2018-10-18T12:15:50.749Z,2.20
2018-10-18T12:18:19.301Z,1.92
2018-10-18T12:20:47.885Z,2.22
2018-10-18T12:23:17.106Z,1.90
2018-10-18T12:25:45.509Z,1.47
2018-10-18T12:28:14.005Z,1.60
2018-10-18T12:30:42.673Z,1.70
2018-10-18T12:33:11.185Z,1.72
2018-10-18T12:35:40.020Z,1.75
2018-10-18T12:38:09.199Z,1.60
2018-10-18T12:40:37.796Z,1.60
2018-10-18T12:43:06.150Z,1.82
2018-10-18T12:45:34.905Z,1.70
2018-10-18T12:48:03.669Z,1.80
2018-10-18T12:50:32.204Z,1.60
2018-10-18T12:53:01.027Z,1.25
2018-10-18T12:55:29.461Z,1.25
2018-10-18T12:57:57.918Z,2.25
2018-10-18T13:00:26.726Z,1.85
2018-10-18T13:02:55.170Z,1.15
2018-10-18T13:05:23.624Z,1.22
2018-10-18T13:07:52.298Z,1.25
2018-10-18T13:10:20.742Z,1.12
2018-10-18T13:12:49.273Z,1.10
2018-10-18T13:15:18.550Z,1.00
2018-10-18T13:17:47.133Z,1.00
2018-10-18T13:20:15.715Z,1.55
2018-10-18T13:22:44.885Z,1.20
2018-10-18T13:25:13.417Z,1.12
2018-10-18T13:27:41.989Z,1.02
2018-10-18T13:30:11.646Z,1.17
2018-10-18T13:32:40.816Z,1.05
2018-10-18T13:35:09.909Z,1.12
2018-10-18T13:37:38.847Z,1.00
2018-10-18T13:40:08.100Z,0.95
2018-10-18T13:42:36.625Z,0.80
2018-10-18T13:45:06.493Z,0.88
2018-10-18T13:47:35.422Z,1.35
2018-10-18T13:50:04.023Z,0.80
2018-10-18T13:52:33.021Z,0.65
2018-10-18T13:55:01.667Z,0.53
2018-10-18T13:57:30.193Z,0.90
2018-10-18T14:00:10.039Z,0.70
2018-10-18T14:02:38.557Z,1.00
2018-10-18T14:05:07.253Z,0.80
2018-10-18T14:07:35.849Z,0.62
2018-10-18T14:10:04.447Z,0.80
2018-10-18T14:12:33.141Z,0.80
2018-10-18T14:15:01.818Z,0.90
2018-10-18T14:17:30.452Z,0.93
2018-10-18T14:19:58.922Z,0.50
2018-10-18T14:22:27.624Z,0.80
2018-10-18T14:24:56.053Z,0.60
2018-10-18T14:27:24.773Z,0.70
2018-10-18T14:29:53.830Z,0.70
2018-10-18T14:32:22.370Z,0.80
2018-10-18T14:34:50.846Z,0.88
2018-10-18T14:37:19.578Z,0.80
2018-10-18T14:39:48.072Z,0.75
2018-10-18T14:42:16.672Z,0.70
2018-10-18T14:44:50.359Z,0.60
2018-10-18T14:47:20.510Z,0.77
2018-10-18T14:49:49.086Z,0.60
2018-10-18T14:52:18.043Z,1.40
2018-10-18T14:54:46.743Z,0.70
2018-10-18T14:57:16.158Z,0.80
2018-10-18T14:59:45.191Z,0.60
2018-10-18T15:02:14.266Z,0.73
2018-10-18T15:04:42.867Z,0.60
2018-10-18T15:07:13.834Z,0.70
2018-10-18T15:09:42.290Z,1.20
2018-10-18T15:12:11.146Z,0.90
2018-10-18T15:14:39.886Z,0.60
2018-10-18T15:17:08.358Z,0.60
2018-10-18T15:19:37.117Z,0.67
2018-10-18T15:22:06.543Z,0.50
2018-10-18T15:24:35.237Z,0.50
2018-10-18T15:27:04.648Z,0.40
2018-10-18T15:29:33.500Z,0.40
2018-10-18T15:32:08.708Z,0.60
2018-10-18T15:34:37.469Z,0.40
2018-10-18T15:37:06.185Z,0.50
2018-10-18T15:39:34.969Z,0.50
2018-10-18T15:42:03.511Z,0.60
2018-10-18T15:44:31.933Z,0.50
2018-10-18T15:47:00.799Z,0.40
2018-10-18T15:49:29.331Z,0.50
2018-10-18T15:51:57.785Z,0.47
2018-10-18T15:54:26.412Z,0.60
2018-10-18T15:56:54.924Z,0.40
2018-10-18T15:59:23.484Z,0.40
2018-10-18T16:01:52.535Z,0.70
2018-10-18T16:04:21.113Z,0.40
2018-10-18T16:06:49.579Z,1.80
2018-10-18T16:09:18.086Z,0.57
2018-10-18T16:11:46.853Z,0.50
2018-10-18T16:14:15.431Z,0.50
2018-10-18T16:16:43.837Z,0.43
2018-10-18T16:19:12.638Z,0.50
2018-10-18T16:21:41.081Z,0.50
2018-10-18T16:24:09.803Z,0.60
2018-10-18T16:26:38.737Z,0.80
2018-10-18T16:29:07.393Z,0.87
2018-10-18T16:31:36.050Z,0.83
2018-10-18T16:34:04.694Z,0.60
2018-10-18T16:36:33.202Z,0.43
2018-10-18T16:39:01.733Z,0.40
2018-10-18T16:41:30.554Z,0.80
2018-10-18T16:43:58.811Z,0.80
2018-10-18T16:46:27.563Z,0.50
2018-10-18T16:48:56.248Z,0.63
2018-10-18T16:51:24.737Z,0.90
2018-10-18T16:53:53.731Z,0.80
2018-10-18T16:56:22.625Z,0.90
2018-10-18T16:58:51.260Z,0.93
2018-10-18T17:01:19.874Z,1.10
2018-10-18T17:03:48.461Z,0.90
2018-10-18T17:06:16.917Z,1.00
2018-10-18T17:08:45.459Z,1.00
2018-10-18T17:11:14.400Z,0.70
2018-10-18T17:13:42.823Z,0.80
2018-10-18T17:16:11.956Z,1.03
2018-10-18T17:18:40.646Z,0.80
2018-10-18T17:21:09.138Z,0.90
2018-10-18T17:23:37.887Z,0.80
2018-10-18T17:26:06.948Z,1.07
2018-10-18T17:28:35.405Z,1.10
2018-10-18T17:31:04.208Z,1.10
2018-10-18T17:33:33.069Z,0.87
2018-10-18T17:36:01.520Z,0.80
2018-10-18T17:38:30.341Z,0.80
2018-10-18T17:40:58.950Z,0.77
2018-10-18T17:43:27.430Z,1.17
2018-10-18T17:45:56.374Z,1.20
2018-10-18T17:48:25.012Z,1.17
2018-10-18T17:50:53.485Z,1.00
2018-10-18T17:53:22.450Z,0.83
2018-10-18T17:55:51.413Z,1.40
2018-10-18T17:58:19.928Z,1.73
2018-10-18T18:00:48.826Z,1.00
2018-10-18T18:03:17.563Z,1.10
2018-10-18T18:05:46.029Z,1.23
2018-10-18T18:08:14.704Z,1.13
2018-10-18T18:10:43.572Z,1.33
2018-10-18T18:13:13.398Z,1.20
2018-10-18T18:15:41.961Z,1.53
2018-10-18T18:18:10.710Z,1.23
2018-10-18T18:20:39.254Z,1.20
2018-10-18T18:23:09.002Z,1.47
2018-10-18T18:25:37.764Z,1.30
2018-10-18T18:28:06.605Z,1.43
2018-10-18T18:30:35.528Z,2.13
2018-10-18T18:33:04.206Z,2.83
2018-10-18T18:35:32.637Z,5.17
2018-10-18T18:38:01.213Z,5.73
2018-10-18T18:40:29.819Z,5.00
2018-10-18T18:43:04.981Z,2.57
2018-10-18T18:45:36.725Z,2.53
2018-10-18T18:48:06.129Z,2.27
2018-10-18T18:50:34.717Z,2.30
2018-10-18T18:53:03.366Z,2.27
2018-10-18T18:55:31.776Z,1.80
2018-10-18T18:58:00.281Z,1.97
2018-10-18T19:00:28.875Z,1.90
2018-10-18T19:02:57.378Z,1.70
2018-10-18T19:05:25.868Z,2.10
2018-10-18T19:07:54.857Z,2.20
2018-10-18T19:10:23.292Z,1.77
2018-10-18T19:12:51.806Z,2.00
2018-10-18T19:15:20.657Z,2.13
2018-10-18T19:17:49.153Z,2.17
2018-10-18T19:20:17.834Z,2.77
2018-10-18T19:22:46.824Z,2.80
2018-10-18T19:25:18.165Z,2.57
2018-10-18T19:27:47.422Z,2.90
2018-10-18T19:30:16.186Z,2.70
2018-10-18T19:32:44.641Z,2.37
2018-10-18T19:35:13.369Z,2.47
2018-10-18T19:37:41.862Z,2.63
2018-10-18T19:40:10.956Z,2.90
2018-10-18T19:42:40.761Z,2.97
2018-10-18T19:45:09.901Z,2.87
2018-10-18T19:47:38.682Z,3.80
2018-10-18T19:50:08.295Z,3.30
2018-10-18T19:52:36.957Z,3.30
2018-10-18T19:55:06.190Z,3.00
2018-10-18T19:57:34.925Z,3.03
2018-10-18T20:00:03.556Z,3.00
2018-10-18T20:02:31.999Z,3.13
2018-10-18T20:05:01.078Z,3.23
2018-10-18T20:07:29.503Z,3.33
2018-10-18T20:09:57.965Z,3.37
2018-10-18T20:12:26.884Z,3.57
2018-10-18T20:14:55.405Z,3.30
2018-10-18T20:17:24.141Z,3.23
2018-10-18T20:19:52.860Z,3.57
2018-10-18T20:22:21.457Z,3.33
2018-10-18T20:24:49.974Z,4.10
2018-10-18T20:27:18.944Z,3.27
2018-10-18T20:29:47.412Z,3.63
2018-10-18T20:32:16.313Z,4.10
2018-10-18T20:34:44.999Z,4.00
2018-10-18T20:37:13.442Z,3.43
2018-10-18T20:39:42.127Z,3.40
2018-10-18T20:42:11.104Z,3.20
2018-10-18T20:44:39.596Z,2.60
2018-10-18T20:47:08.218Z,2.17
2018-10-18T20:49:37.419Z,1.87
2018-10-18T20:52:06.137Z,2.00
2018-10-18T20:54:34.641Z,2.03
2018-10-18T20:57:03.851Z,2.00
2018-10-18T20:59:32.405Z,1.63
2018-10-18T21:02:00.903Z,1.60
2018-10-18T21:04:29.901Z,1.80
2018-10-18T21:06:58.466Z,1.70
2018-10-18T21:09:26.885Z,1.50
2018-10-18T21:11:55.975Z,1.30
2018-10-18T21:14:24.401Z,1.47
2018-10-18T21:16:52.997Z,1.47
2018-10-18T21:19:21.650Z,1.63
2018-10-18T21:21:50.141Z,1.57
2018-10-18T21:24:18.603Z,1.57
2018-10-18T21:26:47.733Z,1.30
2018-10-18T21:29:16.167Z,1.40
2018-10-18T21:31:44.579Z,1.80
2018-10-18T21:34:13.872Z,1.70
2018-10-18T21:36:42.265Z,1.30
2018-10-18T21:39:10.714Z,1.43
2018-10-18T21:41:39.801Z,1.50
2018-10-18T21:44:08.233Z,1.27
2018-10-18T21:46:36.657Z,1.43
2018-10-18T21:49:05.705Z,1.30
2018-10-18T21:51:34.403Z,1.30
2018-10-18T21:54:04.830Z,1.53
2018-10-18T21:56:33.822Z,1.60
2018-10-18T21:59:02.434Z,1.80
2018-10-18T22:01:30.856Z,1.80
2018-10-18T22:03:59.866Z,1.53
2018-10-18T22:06:28.271Z,1.90
2018-10-18T22:08:56.759Z,2.00
2018-10-18T22:11:25.908Z,1.90
2018-10-18T22:13:54.524Z,2.33
2018-10-18T22:16:22.922Z,1.63
2018-10-18T22:18:52.223Z,1.80
2018-10-18T22:21:20.631Z,1.60
2018-10-18T22:23:49.081Z,1.60
2018-10-18T22:26:17.977Z,1.40
2018-10-18T22:28:46.411Z,1.43
2018-10-18T22:31:14.811Z,1.50
2018-10-18T22:33:43.780Z,1.30
2018-10-18T22:36:12.370Z,1.27
2018-10-18T22:38:40.786Z,1.57
2018-10-18T22:41:09.820Z,1.47
2018-10-18T22:43:38.275Z,1.57
2018-10-18T22:46:06.866Z,1.50
2018-10-18T22:48:35.830Z,1.60
2018-10-18T22:51:04.264Z,1.53
2018-10-18T22:53:32.822Z,1.47
2018-10-18T22:56:01.463Z,1.90
2018-10-18T22:58:29.854Z,1.83
2018-10-18T23:00:58.278Z,1.40
2018-10-18T23:03:27.278Z,1.70
2018-10-18T23:05:55.698Z,1.57
2018-10-18T23:08:24.293Z,1.60
2018-10-18T23:10:53.181Z,1.80
2018-10-18T23:13:21.618Z,1.80
2018-10-18T23:15:50.030Z,1.90
2018-10-18T23:18:25.646Z,2.23
2018-10-18T23:20:54.084Z,2.07
2018-10-18T23:23:22.691Z,1.93
2018-10-18T23:25:51.217Z,1.90
2018-10-18T23:28:19.630Z,1.67
2018-10-18T23:30:48.126Z,1.27
2018-10-18T23:33:16.954Z,1.60
2018-10-18T23:35:45.358Z,1.30
2018-10-18T23:38:14.454Z,1.90
2018-10-18T23:40:43.319Z,1.50
2018-10-18T23:43:11.767Z,1.80
2018-10-18T23:45:40.291Z,1.70
2018-10-18T23:48:08.972Z,1.80
2018-10-18T23:50:37.374Z,1.63
2018-10-18T23:53:06.287Z,1.60
2018-10-18T23:55:35.438Z,1.70
2018-10-18T23:58:03.878Z,1.73
